METAR AND TAF INFORMATION
METAR FOR LRCL
ADDS - METARS form results

(2209 UTC 20 February 2020)
Data provider http://aviationweather.gov/metar/data/
 
METAR text: LRCL 202200Z VRB02KT CAVOK M02/M03 Q1022 R07/19//95
Conditions at: LRCL (CLUJ-NAPOCA/SOME, RO) observed 2200 UTC 20 February 2020
Temperature: -2.0°C (28°F)
Dewpoint: -3.0°C (27°F) [RH = 93%]
Pressure (altimeter): 30.18 inches Hg (1022.0 mb)
Winds: variable direction winds at 2 MPH (2 knots; 1.0 m/s)
Visibility: 6 or more miles (10+ km)
Ceiling: ceiling and visibility are OK
Clouds: unknown
Weather: no significant weather observed at this time

METAR text: LRCL 202130Z 31005KT CAVOK 01/M01 Q1022 R07/19//95
Conditions at: LRCL (CLUJ-NAPOCA/SOME, RO) observed 2130 UTC 20 February 2020
Temperature: 1.0°C (34°F)
Dewpoint: -1.0°C (30°F) [RH = 86%]
Pressure (altimeter): 30.18 inches Hg (1022.0 mb)
Winds: from the NW (310 degrees) at 6 MPH (5 knots; 2.6 m/s)
Visibility: 6 or more miles (10+ km)
Ceiling: ceiling and visibility are OK
Clouds: unknown
Weather: no significant weather observed at this time

Forecast for: LRCL (CLUJ-NAPOCA/SOME, RO)
Text: TAF LRCL 202000Z 2021/2106 VRB04KT CAVOK
Forecast period: 2100 to 2200 UTC 20 February 2020
Forecast type: FROM: standard forecast or significant change
Winds: variable direction winds at 5 MPH (4 knots; 2.1 m/s)
Visibility: 6 or more miles 10+ km)
Ceiling: unknown
Clouds: missing
Weather: NSW  (no significant weather)
Text: BECMG 2022/2024 3000 BR
Forecast period: 2200 UTC 20 February 2020 to 0600 UTC 21 February 2020
Forecast type: BECOMING: Conditions expected to become as follows by 0000 UTC 21 February 2020
Winds: variable direction winds at 5 MPH (4 knots; 2.1 m/s)
Visibility: 1.86 miles (2.99 km)
Ceiling: unknown
Clouds: missing
Weather: BR  (mist)
Text: PROB30
Forecast period: 0200 to 0600 UTC 21 February 2020
Forecast type: TEMPORARY: The following changes expected for less than half the time period
Visibility: 0.37 miles (0.60 km)
Ceiling: 200 feet AGL
Clouds: overcast cloud deck at 200 feet AGL
Weather: FZFG  (freezing fog)

 AIRPORT MAP

 RUNWAY INFORMATION
Runway 07 Runway length 6070 ft Runway width 98 ft
Runway elevation 1036 ft Runway displaced threshold 0 ft Runway heading 79
Runway 25 Runway length 6070 ft Runway width 98 ft
Runway elevation 1025 ft Runway displaced threshold 0 ft Runway heading 259
Runway 08 Runway length 0 ft Runway width 0 ft
Runway elevation 1036 ft Runway displaced threshold 0 ft Runway heading 0
Runway 26 Runway length 0 ft Runway width 0 ft
Runway elevation 1025 ft Runway displaced threshold 0 ft Runway heading 0

 AIRPORT FREQUENCIES
Type APP Name APP Frequency 125.1 MHZ
Type GCA Name PRECISION Frequency 118.7 MHZ
Type TWR Name TWR Frequency 134.4 MHZ

 AIRPORT NEAR NAVIGATION AIDS
Type VOR-DME Name Cluj Frequency 111200 KHZ



Powered by Virtual Airlines Manager [v2.6.2]